createdAt,value
2023-03-10T00:00:21.675Z,53.13
2023-03-10T00:03:23.165Z,53.55
2023-03-10T00:06:26.556Z,53.27
2023-03-10T00:09:28.027Z,54.37
2023-03-10T00:12:29.598Z,54.61
2023-03-10T00:15:31.741Z,55.61
2023-03-10T00:18:33.651Z,56.67
2023-03-10T00:21:35.090Z,57.43
2023-03-10T00:24:36.548Z,57.11
2023-03-10T00:27:38.716Z,56.81
2023-03-10T00:30:40.240Z,56.13
2023-03-10T00:33:44.406Z,55.89
2023-03-10T00:36:45.903Z,55.07
2023-03-10T00:39:51.262Z,54.87
2023-03-10T00:42:52.793Z,55.41
2023-03-10T00:45:54.588Z,56.32
2023-03-10T00:48:56.612Z,57.67
2023-03-10T00:51:58.138Z,58.16
2023-03-10T00:54:59.760Z,59.29
2023-03-10T00:58:01.244Z,59.75
2023-03-10T01:01:04.825Z,62.07
2023-03-10T01:04:13.790Z,62.58
2023-03-10T01:07:15.457Z,63.02
2023-03-10T01:10:18.135Z,64.50
2023-03-10T01:13:20.121Z,65.06
2023-03-10T01:16:21.720Z,65.11
2023-03-10T01:19:23.181Z,65.12
2023-03-10T01:22:24.749Z,65.50
2023-03-10T01:25:27.067Z,65.84
2023-03-10T01:28:28.542Z,66.49
2023-03-10T01:31:31.181Z,66.62
2023-03-10T01:34:33.023Z,66.81
2023-03-10T01:37:34.601Z,66.34
2023-03-10T01:40:37.770Z,66.30
2023-03-10T01:43:44.215Z,66.00
2023-03-10T01:46:48.654Z,64.91
2023-03-10T01:50:05.046Z,64.19
2023-03-10T01:53:07.584Z,63.03
2023-03-10T01:56:09.232Z,62.82
2023-03-10T01:59:11.306Z,62.80
2023-03-10T02:02:13.357Z,62.81
2023-03-10T02:05:15.930Z,62.81
2023-03-10T02:08:18.385Z,63.44
2023-03-10T02:11:20.670Z,62.80
2023-03-10T02:14:23.533Z,62.94
2023-03-10T02:17:27.286Z,62.19
2023-03-10T02:20:50.079Z,61.57
2023-03-10T02:24:09.281Z,61.51
2023-03-10T02:27:44.067Z,60.51
2023-03-10T02:30:49.712Z,60.31
2023-03-10T02:33:51.829Z,60.05
2023-03-10T02:36:53.706Z,59.98
2023-03-10T02:39:55.396Z,59.25
2023-03-10T02:42:57.945Z,59.43
2023-03-10T02:46:02.782Z,58.83
2023-03-10T02:49:07.235Z,58.36
2023-03-10T02:52:40.572Z,58.35
2023-03-10T02:55:42.691Z,57.85
2023-03-10T02:58:44.399Z,57.62
2023-03-10T03:01:45.943Z,57.00
2023-03-10T03:04:47.879Z,57.14
2023-03-10T03:07:49.857Z,56.69
2023-03-10T03:10:53.116Z,56.65
2023-03-10T03:13:54.987Z,56.54
2023-03-10T03:16:57.618Z,56.49
2023-03-10T03:19:59.448Z,56.61
2023-03-10T03:23:01.573Z,56.18
2023-03-10T03:26:03.853Z,55.82
2023-03-10T03:29:06.011Z,55.93
2023-03-10T03:32:10.308Z,55.78
2023-03-10T03:35:16.740Z,55.89
2023-03-10T03:38:18.777Z,55.30
2023-03-10T03:41:21.276Z,55.13
2023-03-10T03:44:23.032Z,54.97
2023-03-10T03:47:25.583Z,55.06
2023-03-10T03:50:27.302Z,54.67
2023-03-10T03:53:33.625Z,54.86
2023-03-10T03:56:35.415Z,54.46
2023-03-10T03:59:37.382Z,54.64
2023-03-10T04:02:40.095Z,54.23
2023-03-10T04:05:44.821Z,53.97
2023-03-10T04:08:50.477Z,53.72
2023-03-10T04:11:53.135Z,53.77
2023-03-10T04:14:55.626Z,53.82
2023-03-10T04:17:57.912Z,53.51
2023-03-10T04:20:59.846Z,53.47
2023-03-10T04:24:02.929Z,53.42
2023-03-10T04:27:09.566Z,53.74
2023-03-10T04:30:13.846Z,53.51
2023-03-10T04:33:19.130Z,53.87
2023-03-10T04:36:22.635Z,55.12
2023-03-10T04:39:28.675Z,56.49
2023-03-10T04:42:30.224Z,56.72
2023-03-10T04:45:31.961Z,57.09
2023-03-10T04:48:34.172Z,57.24
2023-03-10T04:51:35.934Z,57.60
2023-03-10T04:54:37.625Z,57.61
2023-03-10T04:57:39.864Z,57.48
2023-03-10T05:00:56.505Z,56.70
2023-03-10T05:04:05.406Z,56.04
2023-03-10T05:07:08.271Z,55.60
2023-03-10T05:10:13.682Z,54.94
2023-03-10T05:13:15.931Z,54.36
2023-03-10T05:16:20.826Z,54.35
2023-03-10T05:19:23.925Z,53.94
2023-03-10T05:22:26.437Z,53.54
2023-03-10T05:25:28.458Z,53.24
2023-03-10T05:28:30.049Z,52.83
2023-03-10T05:31:32.081Z,51.88
2023-03-10T05:34:39.481Z,51.63
2023-03-10T05:37:43.446Z,51.96
2023-03-10T05:40:45.637Z,51.42
2023-03-10T05:43:47.833Z,51.49
2023-03-10T05:46:51.319Z,51.39
2023-03-10T05:49:54.472Z,50.88
2023-03-10T05:52:56.279Z,50.61
2023-03-10T05:55:58.729Z,50.79
2023-03-10T05:59:00.910Z,50.99
2023-03-10T06:02:05.660Z,50.83
2023-03-10T06:05:11.299Z,50.43
2023-03-10T06:08:13.048Z,50.87
2023-03-10T06:11:14.725Z,50.53
2023-03-10T06:14:16.274Z,50.60
2023-03-10T06:17:19.724Z,50.09
2023-03-10T06:20:21.390Z,50.05
2023-03-10T06:23:24.511Z,49.68
2023-03-10T06:26:26.054Z,49.82
2023-03-10T06:29:27.508Z,49.35
2023-03-10T06:32:29.069Z,49.31
2023-03-10T06:35:31.503Z,49.29
2023-03-10T06:38:33.057Z,49.43
2023-03-10T06:41:37.484Z,50.05
2023-03-10T06:44:42.363Z,51.67
2023-03-10T06:47:44.668Z,54.86
2023-03-10T06:50:49.813Z,56.51
2023-03-10T06:53:51.277Z,57.90
2023-03-10T06:56:52.956Z,58.54
2023-03-10T06:59:55.123Z,58.80
2023-03-10T07:02:56.689Z,58.33
2023-03-10T07:05:59.635Z,58.58
2023-03-10T07:09:01.216Z,59.09
2023-03-10T07:12:02.643Z,58.86
2023-03-10T07:15:04.582Z,58.83
2023-03-10T07:18:06.168Z,58.52
2023-03-10T07:21:13.276Z,57.57
2023-03-10T07:24:15.788Z,57.36
2023-03-10T07:27:17.603Z,56.53
2023-03-10T07:30:19.347Z,56.00
2023-03-10T07:33:21.016Z,55.17
2023-03-10T07:36:23.511Z,54.74
2023-03-10T07:39:25.196Z,54.15
2023-03-10T07:42:26.675Z,54.29
2023-03-10T07:45:30.747Z,54.20
2023-03-10T07:48:32.216Z,54.01
2023-03-10T07:51:34.130Z,53.95
2023-03-10T07:54:35.599Z,54.14
2023-03-10T07:57:37.042Z,53.87
2023-03-10T08:00:38.727Z,54.05
2023-03-10T08:03:40.825Z,54.40
2023-03-10T08:06:42.313Z,54.17
2023-03-10T08:09:49.756Z,55.26
2023-03-10T08:12:51.206Z,55.52
2023-03-10T08:15:52.880Z,54.49
2023-03-10T08:18:54.812Z,54.26
2023-03-10T08:22:02.073Z,54.41
2023-03-10T08:25:03.841Z,54.81
2023-03-10T08:28:05.295Z,54.62
2023-03-10T08:31:09.858Z,54.45
2023-03-10T08:34:11.479Z,55.01
2023-03-10T08:37:12.971Z,55.15
2023-03-10T08:40:16.149Z,55.73
2023-03-10T08:43:17.733Z,55.72
2023-03-10T08:46:20.824Z,55.47
2023-03-10T08:49:22.438Z,55.28
2023-03-10T08:52:24.573Z,54.83
2023-03-10T08:55:26.076Z,54.58
2023-03-10T08:58:27.657Z,54.32
2023-03-10T09:01:35.313Z,54.28
2023-03-10T09:04:36.841Z,53.70
2023-03-10T09:07:38.520Z,54.04
2023-03-10T09:10:41.125Z,53.72
2023-03-10T09:13:42.825Z,53.96
2023-03-10T09:16:45.052Z,53.47
2023-03-10T09:19:46.876Z,52.41
2023-03-10T09:22:48.463Z,51.99
2023-03-10T09:25:50.065Z,51.95
2023-03-10T09:28:51.524Z,51.92
2023-03-10T09:31:53.236Z,52.06
2023-03-10T09:34:55.019Z,52.10
2023-03-10T09:37:56.549Z,51.93
2023-03-10T09:41:37.082Z,52.38
2023-03-10T09:44:46.355Z,52.06
2023-03-10T09:47:53.159Z,51.88
2023-03-10T09:50:56.603Z,51.66
2023-03-10T09:54:16.858Z,50.99
2023-03-10T09:57:21.990Z,51.09
2023-03-10T10:00:44.804Z,50.91
2023-03-10T10:03:53.107Z,50.88
2023-03-10T10:06:57.332Z,50.85
2023-03-10T10:10:06.006Z,51.58
2023-03-10T10:13:15.870Z,52.32
2023-03-10T10:16:42.352Z,52.09
2023-03-10T10:19:47.813Z,52.46
2023-03-10T10:22:49.655Z,52.46
2023-03-10T10:25:51.551Z,53.00
2023-03-10T10:29:01.280Z,53.10
2023-03-10T10:32:02.813Z,52.60
2023-03-10T10:35:15.838Z,52.46
2023-03-10T10:38:24.779Z,53.00
2023-03-10T10:41:29.295Z,53.95
2023-03-10T10:44:40.758Z,54.00
2023-03-10T10:47:51.005Z,54.39
2023-03-10T10:50:54.416Z,54.46
2023-03-10T10:54:02.614Z,54.31
2023-03-10T10:57:06.152Z,54.48
2023-03-10T11:00:26.569Z,53.95
2023-03-10T11:03:35.378Z,54.31
2023-03-10T11:06:38.091Z,54.05
2023-03-10T11:09:39.605Z,55.03
2023-03-10T11:12:56.330Z,54.84
2023-03-10T11:16:07.990Z,54.09
2023-03-10T11:19:16.424Z,54.13
2023-03-10T11:22:43.374Z,54.14
2023-03-10T11:26:06.482Z,54.23
2023-03-10T11:29:33.660Z,54.27
2023-03-10T11:32:51.975Z,54.49
2023-03-10T11:36:00.947Z,54.43
2023-03-10T11:39:29.953Z,54.53
2023-03-10T11:42:34.272Z,54.52
2023-03-10T11:45:54.334Z,54.35
2023-03-10T11:49:10.431Z,55.01
2023-03-10T11:52:18.875Z,55.09
2023-03-10T11:55:21.935Z,55.05
2023-03-10T11:58:31.866Z,55.67
2023-03-10T12:01:40.854Z,57.85
2023-03-10T12:04:50.725Z,61.74
2023-03-10T12:07:55.467Z,61.98
2023-03-10T12:11:00.454Z,62.82
2023-03-10T12:14:02.762Z,63.72
2023-03-10T12:17:05.558Z,63.65
2023-03-10T12:20:13.186Z,63.43
2023-03-10T12:23:42.472Z,62.85
2023-03-10T12:26:45.096Z,62.65
2023-03-10T12:29:46.806Z,63.15
2023-03-10T12:32:48.471Z,65.45
2023-03-10T12:35:54.085Z,86.17
2023-03-10T12:39:00.153Z,71.69
2023-03-10T12:42:03.386Z,69.52
2023-03-10T12:45:21.416Z,68.92
2023-03-10T12:48:23.305Z,67.99
2023-03-10T12:51:28.499Z,67.37
2023-03-10T12:54:36.964Z,65.95
2023-03-10T12:58:04.632Z,64.43
2023-03-10T13:01:13.351Z,64.36
2023-03-10T13:04:21.160Z,63.32
2023-03-10T13:07:22.646Z,63.24
2023-03-10T13:10:27.286Z,62.57
2023-03-10T13:13:33.434Z,61.14
2023-03-10T13:16:36.519Z,61.13
2023-03-10T13:19:38.713Z,61.40
2023-03-10T13:22:43.409Z,60.75
2023-03-10T13:25:56.813Z,60.75
2023-03-10T13:29:00.913Z,60.54
2023-03-10T13:32:02.511Z,60.61
2023-03-10T13:35:23.897Z,60.04
2023-03-10T13:38:25.429Z,60.07
2023-03-10T13:41:27.209Z,60.07
2023-03-10T13:44:33.783Z,60.05
2023-03-10T13:47:42.976Z,60.23
2023-03-10T13:50:44.412Z,59.77
2023-03-10T13:53:48.368Z,59.66
2023-03-10T13:56:52.467Z,58.86
2023-03-10T13:59:56.861Z,59.06
2023-03-10T14:02:58.479Z,58.58
2023-03-10T14:05:59.916Z,57.95
2023-03-10T14:09:24.883Z,57.40
2023-03-10T14:12:48.342Z,58.46
2023-03-10T14:15:54.179Z,57.69
2023-03-10T14:18:55.771Z,57.48
2023-03-10T14:22:01.926Z,58.11
2023-03-10T14:25:11.458Z,57.87
2023-03-10T14:31:25.056Z,57.98
2023-03-10T14:34:26.596Z,57.97
2023-03-10T14:37:28.099Z,57.61
2023-03-10T14:40:29.726Z,56.46
2023-03-10T14:43:31.442Z,57.04
2023-03-10T14:46:35.051Z,57.53
2023-03-10T14:49:36.847Z,56.80
2023-03-10T14:52:38.527Z,56.60
2023-03-10T14:55:41.684Z,57.31
2023-03-10T14:58:49.284Z,57.70
2023-03-10T15:01:50.929Z,57.17
2023-03-10T15:04:52.479Z,57.06
2023-03-10T15:07:54.082Z,57.07
2023-03-10T15:10:56.026Z,57.31
2023-03-10T15:13:58.011Z,56.74
2023-03-10T15:16:59.526Z,57.26
2023-03-10T15:20:01.021Z,57.72
2023-03-10T15:23:02.442Z,58.05
2023-03-10T15:26:09.448Z,56.76
2023-03-10T15:29:15.827Z,55.68
2023-03-10T15:32:46.100Z,54.70
2023-03-10T15:35:47.640Z,54.56
2023-03-10T15:38:49.106Z,55.16
2023-03-10T15:41:50.599Z,55.36
2023-03-10T15:44:52.161Z,55.67
2023-03-10T15:47:53.696Z,56.98
2023-03-10T15:50:55.179Z,59.73
2023-03-10T15:53:58.809Z,61.77
2023-03-10T15:57:00.365Z,65.98
2023-03-10T16:00:01.890Z,65.52
2023-03-10T16:03:03.459Z,64.91
2023-03-10T16:06:05.659Z,64.71
2023-03-10T16:09:09.021Z,65.08
2023-03-10T16:12:10.637Z,64.85
2023-03-10T16:15:23.702Z,64.44
2023-03-10T16:18:25.213Z,64.35
2023-03-10T16:21:27.830Z,64.03
2023-03-10T16:24:29.314Z,63.11
2023-03-10T16:27:30.891Z,63.29
2023-03-10T16:30:34.884Z,62.69
2023-03-10T16:33:36.557Z,60.66
2023-03-10T16:36:38.042Z,60.44
2023-03-10T16:39:39.504Z,59.61
2023-03-10T16:42:45.270Z,58.81
2023-03-10T16:45:48.870Z,58.16
2023-03-10T16:48:50.432Z,57.74
2023-03-10T16:51:51.973Z,57.78
2023-03-10T16:54:57.301Z,58.05
2023-03-10T16:57:58.889Z,57.76
2023-03-10T17:01:01.007Z,57.20
2023-03-10T17:04:02.570Z,56.58
2023-03-10T17:07:04.059Z,56.65
2023-03-10T17:10:06.072Z,55.84
2023-03-10T17:13:07.541Z,54.90
2023-03-10T17:16:12.589Z,54.85
2023-03-10T17:19:19.463Z,55.06
2023-03-10T17:22:21.070Z,54.61
2023-03-10T17:25:22.686Z,56.84
2023-03-10T17:28:24.435Z,57.64
2023-03-10T17:31:27.518Z,59.41
2023-03-10T17:34:29.344Z,60.69
2023-03-10T17:37:30.842Z,61.04
2023-03-10T17:40:33.743Z,61.06
2023-03-10T17:43:35.225Z,60.28
2023-03-10T17:46:36.968Z,60.39
2023-03-10T17:49:38.623Z,60.23
2023-03-10T17:52:40.108Z,59.85
2023-03-10T17:55:41.704Z,59.76
2023-03-10T17:58:43.608Z,59.97
2023-03-10T18:01:45.869Z,59.70
2023-03-10T18:04:48.574Z,58.45
2023-03-10T18:07:53.533Z,57.86
2023-03-10T18:11:03.685Z,57.19
2023-03-10T18:14:05.991Z,56.29
2023-03-10T18:17:07.481Z,54.08
2023-03-10T18:20:13.741Z,53.48
2023-03-10T18:23:17.327Z,53.00
2023-03-10T18:26:30.274Z,51.50
2023-03-10T18:29:31.741Z,51.10
2023-03-10T18:32:34.159Z,52.32
2023-03-10T18:35:39.691Z,54.82
2023-03-10T18:38:41.298Z,55.87
2023-03-10T18:41:42.841Z,56.54
2023-03-10T18:44:46.434Z,57.26
2023-03-10T18:47:48.123Z,58.65
2023-03-10T18:50:49.646Z,59.71
2023-03-10T18:53:51.663Z,63.95
2023-03-10T18:56:53.225Z,64.92
2023-03-10T18:59:54.687Z,67.70
2023-03-10T19:02:56.269Z,68.21
2023-03-10T19:05:58.200Z,68.15
2023-03-10T19:09:01.319Z,68.66
2023-03-10T19:12:02.838Z,68.85
2023-03-10T19:15:08.807Z,68.52
2023-03-10T19:18:10.440Z,68.11
2023-03-10T19:21:13.024Z,68.34
2023-03-10T19:24:14.512Z,67.12
2023-03-10T19:27:16.052Z,65.70
2023-03-10T19:30:22.352Z,64.92
2023-03-10T19:33:23.925Z,64.97
2023-03-10T19:36:26.567Z,64.93
2023-03-10T19:39:28.066Z,64.43
2023-03-10T19:42:29.545Z,63.79
2023-03-10T19:45:31.096Z,63.69
2023-03-10T19:48:32.824Z,62.55
2023-03-10T19:51:34.452Z,61.97
2023-03-10T19:54:36.125Z,61.17
2023-03-10T19:57:37.644Z,60.72
2023-03-10T20:00:39.158Z,59.12
2023-03-10T20:03:40.863Z,57.92
2023-03-10T20:06:42.381Z,57.76
2023-03-10T20:09:43.922Z,57.22
2023-03-10T20:12:47.005Z,55.43
2023-03-10T20:15:48.482Z,55.25
2023-03-10T20:18:50.235Z,53.82
2023-03-10T20:21:52.168Z,54.69
2023-03-10T20:24:53.715Z,54.00
2023-03-10T20:27:55.214Z,50.71
2023-03-10T20:30:56.690Z,52.60
2023-03-10T20:33:58.234Z,50.88
2023-03-10T20:36:59.686Z,52.70
2023-03-10T20:40:02.802Z,51.43
2023-03-10T20:43:05.320Z,51.55
2023-03-10T20:46:07.762Z,51.54
2023-03-10T20:49:10.043Z,50.61
2023-03-10T20:52:11.977Z,50.98
2023-03-10T20:55:22.961Z,50.53
2023-03-10T20:58:24.509Z,51.42
2023-03-10T21:01:27.208Z,49.39
2023-03-10T21:04:28.879Z,51.25
2023-03-10T21:07:30.466Z,51.34
2023-03-10T21:10:32.155Z,51.10
2023-03-10T21:13:33.598Z,49.95
2023-03-10T21:16:41.408Z,49.99
2023-03-10T21:19:42.931Z,49.26
2023-03-10T21:22:44.576Z,48.98
2023-03-10T21:25:46.125Z,49.03
2023-03-10T21:28:48.176Z,50.02
2023-03-10T21:31:49.587Z,49.34
2023-03-10T21:34:51.100Z,49.54
2023-03-10T21:37:52.671Z,49.51
2023-03-10T21:40:54.673Z,49.57
2023-03-10T21:43:58.477Z,49.24
2023-03-10T21:47:00.221Z,48.95
2023-03-10T21:50:02.046Z,48.96
2023-03-10T21:53:04.898Z,49.00
2023-03-10T21:56:07.291Z,48.80
2023-03-10T21:59:08.791Z,48.71
2023-03-10T22:02:25.260Z,48.02
2023-03-10T22:05:26.782Z,48.69
2023-03-10T22:08:28.240Z,49.45
2023-03-10T22:11:29.833Z,49.38
2023-03-10T22:14:31.402Z,48.94
2023-03-10T22:17:33.538Z,49.36
2023-03-10T22:20:35.213Z,49.65
2023-03-10T22:23:36.722Z,49.76
2023-03-10T22:26:38.219Z,50.50
2023-03-10T22:29:39.836Z,49.90
2023-03-10T22:32:41.795Z,50.24
2023-03-10T22:35:45.165Z,51.06
2023-03-10T22:38:46.637Z,51.16
2023-03-10T22:41:48.147Z,50.63
2023-03-10T22:44:49.612Z,50.99
2023-03-10T22:47:54.051Z,50.71
2023-03-10T22:50:55.530Z,50.50
2023-03-10T22:53:57.009Z,50.35
2023-03-10T22:56:58.641Z,50.72
2023-03-10T23:00:00.098Z,50.98
2023-03-10T23:03:02.328Z,51.02
2023-03-10T23:06:05.905Z,51.22
2023-03-10T23:09:10.643Z,51.35
2023-03-10T23:12:12.218Z,50.83
2023-03-10T23:15:24.861Z,50.95
2023-03-10T23:18:26.919Z,51.19
2023-03-10T23:21:28.467Z,50.80
2023-03-10T23:24:29.922Z,50.78
2023-03-10T23:27:31.381Z,50.27
2023-03-10T23:30:34.693Z,49.99
2023-03-10T23:33:36.203Z,50.11
2023-03-10T23:36:37.698Z,50.19
2023-03-10T23:39:39.205Z,50.07
2023-03-10T23:42:42.545Z,50.30
2023-03-10T23:45:44.668Z,49.83
2023-03-10T23:48:46.181Z,49.73
2023-03-10T23:51:48.901Z,49.50
2023-03-10T23:54:50.345Z,49.91
2023-03-10T23:57:51.811Z,49.55
